Time;durP1;ratioP1;P1;durP2;ratioP2;P2;SDS_P1;SDS_P2;PMS_P1;PMS_P2;Temp;Humidity;BMP_temperature;BMP_pressure;BME280_temperature;BME280_humidity;BME280_pressure;Samples;Min_cycle;Max_cycle;Signal;HPM_P1;HPM_P2
2023/06/10 00:00:41;;;;;;;16.08;9.30;;;;;;;;;;5052613;28;20521;-76
2023/06/10 00:03:08;;;;;;;17.92;8.95;;;;;;;;;;5064260;28;20065;-77
2023/06/10 00:05:34;;;;;;;13.23;8.60;;;;;;;;;;5053327;28;20025;-77
2023/06/10 00:08:06;;;;;;;12.38;8.00;;;;;;;;;;5052475;28;20132;-77
2023/06/10 00:10:33;;;;;;;11.77;8.45;;;;;;;;;;5062578;28;20085;-77
2023/06/10 00:12:59;;;;;;;14.95;8.88;;;;;;;;;;5058842;28;20414;-76
2023/06/10 00:15:25;;;;;;;14.00;7.78;;;;;;;;;;5051162;28;20116;-76
2023/06/10 00:17:54;;;;;;;16.58;8.70;;;;;;;;;;5052708;28;20021;-76
2023/06/10 00:20:23;;;;;;;12.35;8.98;;;;;;;;;;5058552;28;20446;-76
2023/06/10 00:22:49;;;;;;;16.48;8.68;;;;;;;;;;5059028;28;20024;-77
2023/06/10 00:25:16;;;;;;;14.20;8.50;;;;;;;;;;5057184;28;20359;-76
2023/06/10 00:27:42;;;;;;;16.52;9.32;;;;;;;;;;5052458;28;20081;-75
2023/06/10 00:30:08;;;;;;;13.65;9.00;;;;;;;;;;5048654;28;20790;-76
2023/06/10 00:32:35;;;;;;;12.05;8.73;;;;;;;;;;5052481;28;20041;-76
2023/06/10 00:35:01;;;;;;;14.85;8.55;;;;;;;;;;5061695;28;20125;-76
2023/06/10 00:37:29;;;;;;;14.85;9.18;;;;;;;;;;5051723;28;20039;-76
2023/06/10 00:39:55;;;;;;;16.08;9.38;;;;;;;;;;5053797;28;20513;-76
2023/06/10 00:42:23;;;;;;;12.43;8.45;;;;;;;;;;5062120;28;20086;-76
2023/06/10 00:44:49;;;;;;;14.15;8.07;;;;;;;;;;5052013;28;20028;-76
2023/06/10 00:47:16;;;;;;;16.23;9.40;;;;;;;;;;5058527;28;20039;-76
2023/06/10 00:49:42;;;;;;;15.52;9.10;;;;;;;;;;5064295;28;20391;-77
2023/06/10 00:52:10;;;;;;;17.88;9.40;;;;;;;;;;5059042;28;20033;-77
2023/06/10 00:54:37;;;;;;;15.15;9.88;;;;;;;;;;5066139;28;20258;-77
2023/06/10 00:57:03;;;;;;;18.23;11.15;;;;;;;;;;5060637;28;20032;-76
2023/06/10 00:59:30;;;;;;;17.17;9.38;;;;;;;;;;5064866;28;20041;-76
2023/06/10 01:01:57;;;;;;;17.90;9.00;;;;;;;;;;5063296;28;20055;-76
2023/06/10 01:04:23;;;;;;;15.13;8.77;;;;;;;;;;5063456;28;20060;-76
2023/06/10 01:07:09;;;;;;;17.23;9.43;;;;;;;;;;5054750;28;20025;-77
2023/06/10 01:09:35;;;;;;;;;;;;;;;;;;5059515;28;20042;-76
2023/06/10 01:12:10;;;;;;;13.48;8.52;;;;;;;;;;5056508;28;19917;-76
2023/06/10 01:14:38;;;;;;;19.92;9.50;;;;;;;;;;5067882;28;20042;-76
2023/06/10 01:17:04;;;;;;;14.35;9.00;;;;;;;;;;5066446;28;20028;-76
2023/06/10 01:19:31;;;;;;;12.70;10.25;;;;;;;;;;5071667;28;20092;-76
2023/06/10 01:22:00;;;;;;;17.55;10.38;;;;;;;;;;5072457;28;20208;-75
2023/06/10 01:24:27;;;;;;;16.55;9.55;;;;;;;;;;5062605;28;20029;-76
2023/06/10 01:26:54;;;;;;;13.45;9.23;;;;;;;;;;5067772;28;20021;-76
2023/06/10 01:29:32;;;;;;;17.70;9.63;;;;;;;;;;5054548;28;20035;-76
2023/06/10 01:31:58;;;;;;;16.42;9.95;;;;;;;;;;5051275;28;20042;-76
2023/06/10 01:34:24;;;;;;;21.35;11.43;;;;;;;;;;5050986;28;20391;-76
2023/06/10 01:36:51;;;;;;;14.85;10.80;;;;;;;;;;5049126;28;20501;-75
2023/06/10 01:39:18;;;;;;;15.77;10.60;;;;;;;;;;5050369;28;20436;-76
2023/06/10 01:41:44;;;;;;;17.17;10.75;;;;;;;;;;5064462;28;20664;-75
2023/06/10 01:44:11;;;;;;;15.77;10.70;;;;;;;;;;5063068;28;20663;-76
2023/06/10 01:46:37;;;;;;;18.63;10.77;;;;;;;;;;5059187;28;20027;-75
2023/06/10 01:49:03;;;;;;;16.15;11.07;;;;;;;;;;5054166;28;20021;-76
2023/06/10 01:51:31;;;;;;;15.10;10.77;;;;;;;;;;5063532;28;20527;-75
2023/06/10 01:53:57;;;;;;;15.77;10.57;;;;;;;;;;5061645;28;20029;-75
2023/06/10 01:56:23;;;;;;;16.10;10.50;;;;;;;;;;5049974;28;20033;-75
2023/06/10 01:58:49;;;;;;;16.38;10.35;;;;;;;;;;5061404;28;20025;-75
2023/06/10 02:01:15;;;;;;;18.02;10.70;;;;;;;;;;5051881;28;20063;-76
2023/06/10 02:03:41;;;;;;;18.70;10.98;;;;;;;;;;5051659;28;20028;-76
2023/06/10 02:06:07;;;;;;;16.88;10.48;;;;;;;;;;5067197;28;20021;-76
2023/06/10 02:08:34;;;;;;;15.27;10.73;;;;;;;;;;5049830;28;20024;-76
2023/06/10 02:11:00;;;;;;;20.35;11.93;;;;;;;;;;5053807;28;20024;-76
2023/06/10 02:13:26;;;;;;;20.20;11.27;;;;;;;;;;5063145;28;20554;-76
2023/06/10 02:15:53;;;;;;;21.38;11.70;;;;;;;;;;5063175;28;20122;-76
2023/06/10 02:18:20;;;;;;;19.38;12.18;;;;;;;;;;5062526;28;20830;-76
2023/06/10 02:20:46;;;;;;;22.35;12.02;;;;;;;;;;5063644;28;20017;-75
2023/06/10 02:23:12;;;;;;;19.77;12.15;;;;;;;;;;5066325;28;20440;-75
2023/06/10 02:25:39;;;;;;;29.60;12.60;;;;;;;;;;5060572;28;20035;-75
2023/06/10 02:28:05;;;;;;;19.48;11.52;;;;;;;;;;5051193;28;20028;-75
2023/06/10 02:30:31;;;;;;;21.58;12.35;;;;;;;;;;5065016;28;20379;-76
2023/06/10 02:32:59;;;;;;;24.63;13.25;;;;;;;;;;5057198;28;20033;-76
2023/06/10 02:35:25;;;;;;;22.13;11.30;;;;;;;;;;5060254;28;20044;-75
2023/06/10 02:37:51;;;;;;;23.15;12.68;;;;;;;;;;5065956;28;20078;-75
2023/06/10 02:40:17;;;;;;;18.65;12.10;;;;;;;;;;5059924;28;20544;-75
2023/06/10 02:42:43;;;;;;;20.70;13.35;;;;;;;;;;5061103;28;20033;-76
2023/06/10 02:45:09;;;;;;;20.17;12.55;;;;;;;;;;5056257;28;20057;-76
2023/06/10 02:47:35;;;;;;;16.30;12.70;;;;;;;;;;5059176;28;20547;-76
2023/06/10 02:50:01;;;;;;;22.08;12.15;;;;;;;;;;5056500;28;20021;-76
2023/06/10 02:52:28;;;;;;;19.10;12.43;;;;;;;;;;5062440;28;20023;-76
2023/06/10 02:54:55;;;;;;;22.05;12.73;;;;;;;;;;5058623;28;20028;-75
2023/06/10 02:57:21;;;;;;;31.80;12.07;;;;;;;;;;5060128;28;20021;-75
2023/06/10 02:59:47;;;;;;;21.92;12.98;;;;;;;;;;5067761;28;20106;-75
2023/06/10 03:02:13;;;;;;;26.15;12.23;;;;;;;;;;5059517;28;20105;-75
2023/06/10 03:04:40;;;;;;;18.13;11.88;;;;;;;;;;5059521;28;20025;-75
2023/06/10 03:07:07;;;;;;;18.48;11.85;;;;;;;;;;5057161;28;20059;-75
2023/06/10 03:09:33;;;;;;;21.67;13.48;;;;;;;;;;5055193;28;20031;-75
2023/06/10 03:12:00;;;;;;;19.70;12.57;;;;;;;;;;5061167;28;20098;-75
2023/06/10 03:14:26;;;;;;;21.77;13.20;;;;;;;;;;5065831;28;20036;-76
2023/06/10 03:16:53;;;;;;;20.50;13.20;;;;;;;;;;5064354;28;20035;-75
2023/06/10 03:19:20;;;;;;;23.83;13.15;;;;;;;;;;5062693;28;20016;-76
2023/06/10 03:21:50;;;;;;;24.08;12.35;;;;;;;;;;5058475;28;20021;-76
2023/06/10 03:24:16;;;;;;;20.85;12.20;;;;;;;;;;5073822;28;20120;-75
2023/06/10 03:26:42;;;;;;;20.60;12.52;;;;;;;;;;5058992;28;20103;-76
2023/06/10 03:29:08;;;;;;;24.17;12.57;;;;;;;;;;5058132;28;20024;-74
2023/06/10 03:31:36;;;;;;;21.52;12.27;;;;;;;;;;5057158;28;20051;-75
2023/06/10 03:34:02;;;;;;;23.50;13.05;;;;;;;;;;5067949;28;20142;-75
2023/06/10 03:36:29;;;;;;;22.17;12.02;;;;;;;;;;5055333;28;20502;-75
2023/06/10 03:38:56;;;;;;;22.85;12.30;;;;;;;;;;5058131;28;20127;-76
2023/06/10 03:41:22;;;;;;;23.95;12.52;;;;;;;;;;5067599;28;20021;-75
2023/06/10 03:43:49;;;;;;;22.67;12.32;;;;;;;;;;5056587;28;20052;-75
2023/06/10 03:46:17;;;;;;;21.60;12.27;;;;;;;;;;5052939;28;20042;-76
2023/06/10 03:48:43;;;;;;;22.55;13.43;;;;;;;;;;5048593;28;20410;-76
2023/06/10 03:51:09;;;;;;;20.17;12.30;;;;;;;;;;5063192;28;20047;-76
2023/06/10 03:53:35;;;;;;;23.38;13.05;;;;;;;;;;5053369;28;20020;-76
2023/06/10 03:56:01;;;;;;;24.38;12.50;;;;;;;;;;5052004;28;20033;-75
2023/06/10 03:58:27;;;;;;;19.45;12.32;;;;;;;;;;5052477;28;20029;-76
2023/06/10 04:00:55;;;;;;;22.75;12.32;;;;;;;;;;5053845;28;20028;-76
2023/06/10 04:03:21;;;;;;;20.48;12.35;;;;;;;;;;5062197;28;20086;-75
2023/06/10 04:05:47;;;;;;;24.95;12.55;;;;;;;;;;5066760;28;20425;-76
2023/06/10 04:08:13;;;;;;;20.80;11.77;;;;;;;;;;5055404;28;20036;-76
2023/06/10 04:10:39;;;;;;;28.30;12.20;;;;;;;;;;5068430;28;20081;-75
2023/06/10 04:13:05;;;;;;;19.75;11.40;;;;;;;;;;5057691;28;20028;-76
2023/06/10 04:15:34;;;;;;;23.23;13.20;;;;;;;;;;5053473;28;20100;-75
2023/06/10 04:18:01;;;;;;;23.17;11.32;;;;;;;;;;5050563;28;20099;-76
2023/06/10 04:20:27;;;;;;;27.75;12.68;;;;;;;;;;5060976;28;20036;-76
2023/06/10 04:22:53;;;;;;;19.75;11.23;;;;;;;;;;5047203;28;20534;-75
2023/06/10 04:25:20;;;;;;;27.17;14.20;;;;;;;;;;5050925;28;20013;-76
2023/06/10 04:27:46;;;;;;;20.52;11.70;;;;;;;;;;5066121;28;20024;-77
2023/06/10 04:30:12;;;;;;;20.50;12.00;;;;;;;;;;5076730;28;20072;-76
2023/06/10 04:32:38;;;;;;;17.25;11.63;;;;;;;;;;5072888;28;20410;-76
2023/06/10 04:35:05;;;;;;;21.92;9.95;;;;;;;;;;5075902;28;20097;-76
2023/06/10 04:37:31;;;;;;;20.67;10.52;;;;;;;;;;5068541;28;20056;-76
2023/06/10 04:39:58;;;;;;;24.27;10.70;;;;;;;;;;5060290;28;20111;-76
2023/06/10 04:42:24;;;;;;;22.33;10.73;;;;;;;;;;5058218;28;20592;-76
2023/06/10 04:44:50;;;;;;;18.38;11.57;;;;;;;;;;5057880;28;20474;-76
2023/06/10 04:47:17;;;;;;;23.50;9.15;;;;;;;;;;5070099;28;20036;-77
2023/06/10 04:49:43;;;;;;;19.25;9.68;;;;;;;;;;5060607;28;20312;-76
2023/06/10 04:52:09;;;;;;;16.38;9.93;;;;;;;;;;5058132;28;20028;-76
2023/06/10 04:54:35;;;;;;;22.13;10.35;;;;;;;;;;5066662;28;20375;-75
2023/06/10 04:57:01;;;;;;;19.33;9.82;;;;;;;;;;5050931;28;20021;-76
2023/06/10 04:59:27;;;;;;;18.52;9.63;;;;;;;;;;5050642;28;20027;-76
2023/06/10 05:01:54;;;;;;;20.17;10.15;;;;;;;;;;5049263;28;20088;-76
2023/06/10 05:04:20;;;;;;;15.48;9.35;;;;;;;;;;5052167;28;20471;-76
2023/06/10 05:06:46;;;;;;;16.77;9.88;;;;;;;;;;5055662;28;20096;-76
2023/06/10 05:09:12;;;;;;;16.27;9.32;;;;;;;;;;5057565;28;20017;-75
2023/06/10 05:11:38;;;;;;;24.17;9.80;;;;;;;;;;5054267;28;20032;-76
2023/06/10 05:14:05;;;;;;;21.60;9.88;;;;;;;;;;5052196;28;20150;-77
2023/06/10 05:16:31;;;;;;;17.95;9.73;;;;;;;;;;5061283;28;20027;-76
2023/06/10 05:18:57;;;;;;;19.77;9.82;;;;;;;;;;5057624;28;20112;-76
2023/06/10 05:21:23;;;;;;;18.42;10.15;;;;;;;;;;5064642;28;20033;-76
2023/06/10 05:23:50;;;;;;;22.42;9.35;;;;;;;;;;5057653;28;20028;-76
2023/06/10 05:26:16;;;;;;;15.80;9.32;;;;;;;;;;5062722;28;20088;-75
2023/06/10 05:28:42;;;;;;;22.23;9.95;;;;;;;;;;5064569;28;20104;-76
2023/06/10 05:31:08;;;;;;;17.90;9.77;;;;;;;;;;5062957;28;20044;-76
2023/06/10 05:33:34;;;;;;;16.92;9.38;;;;;;;;;;5062608;28;20039;-75
2023/06/10 05:36:00;;;;;;;25.25;9.05;;;;;;;;;;5061677;28;20029;-76
2023/06/10 05:38:26;;;;;;;20.83;9.93;;;;;;;;;;5061970;28;20542;-75
2023/06/10 05:40:53;;;;;;;16.30;9.65;;;;;;;;;;5064286;28;20032;-76
2023/06/10 05:43:19;;;;;;;14.68;9.13;;;;;;;;;;5056915;28;20035;-75
2023/06/10 05:45:45;;;;;;;17.33;9.73;;;;;;;;;;5064448;28;20042;-76
2023/06/10 05:48:11;;;;;;;14.10;9.50;;;;;;;;;;5060273;28;20024;-75
2023/06/10 05:50:39;;;;;;;16.85;8.63;;;;;;;;;;5067227;28;20383;-76
2023/06/10 05:53:14;;;;;;;24.05;9.75;;;;;;;;;;5062075;28;20029;-76
2023/06/10 05:55:42;;;;;;;17.85;9.65;;;;;;;;;;5072285;28;20031;-76
2023/06/10 05:58:08;;;;;;;12.65;8.70;;;;;;;;;;5064141;28;20058;-76
2023/06/10 06:00:34;;;;;;;16.35;8.55;;;;;;;;;;5063767;28;20035;-76
2023/06/10 06:03:00;;;;;;;14.48;8.73;;;;;;;;;;5064643;28;20037;-76
2023/06/10 06:05:34;;;;;;;17.58;10.05;;;;;;;;;;5061536;28;20307;-76
2023/06/10 06:08:04;;;;;;;19.95;9.43;;;;;;;;;;5059222;28;20091;-75
2023/06/10 06:10:30;;;;;;;15.82;9.38;;;;;;;;;;5061678;28;20056;-76
2023/06/10 06:12:56;;;;;;;17.92;8.43;;;;;;;;;;5068009;28;20029;-77
2023/06/10 06:15:22;;;;;;;18.35;9.07;;;;;;;;;;5059921;28;20032;-76
2023/06/10 06:17:48;;;;;;;21.95;8.68;;;;;;;;;;5059640;28;20749;-77
2023/06/10 06:20:14;;;;;;;19.23;9.50;;;;;;;;;;5069156;28;20035;-75
2023/06/10 06:22:42;;;;;;;19.75;9.35;;;;;;;;;;5053668;28;20051;-76
2023/06/10 06:25:08;;;;;;;17.45;8.73;;;;;;;;;;5057079;28;20033;-76
2023/06/10 06:27:34;;;;;;;16.13;9.07;;;;;;;;;;5072251;28;20029;-76
2023/06/10 06:30:00;;;;;;;18.65;8.80;;;;;;;;;;5070031;28;20402;-76
2023/06/10 06:32:27;;;;;;;18.83;9.80;;;;;;;;;;5069670;28;20016;-75
2023/06/10 06:34:56;;;;;;;20.40;9.18;;;;;;;;;;5060584;28;20025;-76
2023/06/10 06:37:23;;;;;;;14.25;8.93;;;;;;;;;;5062122;28;20040;-76
2023/06/10 06:39:51;;;;;;;19.35;10.05;;;;;;;;;;5055914;28;20028;-76
2023/06/10 06:42:17;;;;;;;17.27;8.50;;;;;;;;;;5058441;28;20054;-76
2023/06/10 06:44:43;;;;;;;17.35;8.50;;;;;;;;;;5059189;28;20395;-76
2023/06/10 06:47:10;;;;;;;18.83;8.98;;;;;;;;;;5057476;28;20024;-76
2023/06/10 06:49:36;;;;;;;15.60;8.38;;;;;;;;;;5063309;28;20029;-77
2023/06/10 06:52:02;;;;;;;19.95;8.25;;;;;;;;;;5057156;28;20794;-75
2023/06/10 06:54:29;;;;;;;17.80;9.02;;;;;;;;;;5056421;28;20056;-77
2023/06/10 06:56:55;;;;;;;19.13;8.40;;;;;;;;;;5056771;28;20079;-76
2023/06/10 06:59:21;;;;;;;16.48;8.85;;;;;;;;;;5058777;28;20033;-76
2023/06/10 07:01:47;;;;;;;21.08;9.00;;;;;;;;;;5071510;28;20069;-76
2023/06/10 07:04:15;;;;;;;13.65;8.88;;;;;;;;;;5070715;28;20035;-76
2023/06/10 07:06:42;;;;;;;15.98;9.10;;;;;;;;;;5066508;28;20036;-77
2023/06/10 07:09:09;;;;;;;22.20;9.30;;;;;;;;;;5063797;28;20029;-77
2023/06/10 07:11:35;;;;;;;21.60;9.52;;;;;;;;;;5064954;28;20024;-76
2023/06/10 07:14:01;;;;;;;17.73;8.45;;;;;;;;;;5055659;28;20043;-76
2023/06/10 07:16:27;;;;;;;21.67;9.35;;;;;;;;;;5051056;28;20151;-76
2023/06/10 07:18:53;;;;;;;18.40;8.18;;;;;;;;;;5058082;28;20028;-76
2023/06/10 07:21:19;;;;;;;17.75;9.70;;;;;;;;;;5057783;28;20035;-76
2023/06/10 07:23:46;;;;;;;21.85;9.63;;;;;;;;;;5059171;28;20028;-76
2023/06/10 07:26:13;;;;;;;14.85;8.38;;;;;;;;;;5052756;28;20075;-77
2023/06/10 07:28:42;;;;;;;21.10;9.30;;;;;;;;;;5057992;28;20498;-76
2023/06/10 07:31:08;;;;;;;19.38;9.55;;;;;;;;;;5053996;28;20136;-76
2023/06/10 07:33:35;;;;;;;17.08;8.65;;;;;;;;;;5063300;28;20037;-77
2023/06/10 07:36:01;;;;;;;18.63;8.85;;;;;;;;;;5062212;28;20032;-76
2023/06/10 07:38:27;;;;;;;15.80;9.73;;;;;;;;;;5062103;28;20029;-74
2023/06/10 07:40:53;;;;;;;16.83;9.20;;;;;;;;;;5065937;28;20103;-76
2023/06/10 07:43:19;;;;;;;20.48;9.93;;;;;;;;;;5068677;28;20059;-76
2023/06/10 07:45:45;;;;;;;17.25;9.68;;;;;;;;;;5076252;28;20055;-76
2023/06/10 07:48:11;;;;;;;16.63;9.52;;;;;;;;;;5062751;28;20056;-76
2023/06/10 07:50:37;;;;;;;16.20;8.60;;;;;;;;;;5056672;28;20423;-76
2023/06/10 07:53:04;;;;;;;22.65;9.80;;;;;;;;;;5057600;28;20473;-76
2023/06/10 07:55:30;;;;;;;15.82;9.07;;;;;;;;;;5063131;28;20033;-76
2023/06/10 07:57:56;;;;;;;18.85;9.98;;;;;;;;;;5058875;28;20620;-76
2023/06/10 08:00:22;;;;;;;16.55;9.57;;;;;;;;;;5063502;28;20421;-76
2023/06/10 08:02:48;;;;;;;18.92;8.52;;;;;;;;;;5060421;28;20028;-76
2023/06/10 08:05:14;;;;;;;17.00;9.00;;;;;;;;;;5050954;28;20403;-76
2023/06/10 08:07:40;;;;;;;15.43;8.82;;;;;;;;;;5061807;28;20489;-76
2023/06/10 08:10:07;;;;;;;18.75;8.85;;;;;;;;;;5050732;28;20104;-75
2023/06/10 08:12:33;;;;;;;17.80;9.55;;;;;;;;;;5060660;28;20390;-76
2023/06/10 08:15:00;;;;;;;19.50;8.70;;;;;;;;;;5063923;28;20021;-76
2023/06/10 08:17:26;;;;;;;14.00;8.93;;;;;;;;;;5062323;28;20089;-76
2023/06/10 08:19:52;;;;;;;19.13;9.48;;;;;;;;;;5057434;28;20024;-75
2023/06/10 08:22:18;;;;;;;19.45;9.55;;;;;;;;;;5058226;28;20507;-76
2023/06/10 08:24:45;;;;;;;16.50;8.38;;;;;;;;;;5071101;28;20036;-76
2023/06/10 08:27:11;;;;;;;15.80;8.88;;;;;;;;;;5058188;28;20035;-76
2023/06/10 08:29:37;;;;;;;18.15;10.45;;;;;;;;;;5054689;28;20023;-76
2023/06/10 08:32:03;;;;;;;17.13;8.27;;;;;;;;;;5048769;28;20056;-75
2023/06/10 08:34:30;;;;;;;19.48;8.25;;;;;;;;;;5055166;28;20060;-76
2023/06/10 08:36:56;;;;;;;14.65;8.65;;;;;;;;;;5060297;28;20050;-77
2023/06/10 08:39:23;;;;;;;18.48;9.18;;;;;;;;;;5056928;28;20406;-76
2023/06/10 08:42:00;;;;;;;14.50;9.63;;;;;;;;;;5052345;28;20586;-75
2023/06/10 08:44:28;;;;;;;16.30;8.25;;;;;;;;;;5056174;28;20037;-76
2023/06/10 08:46:57;;;;;;;13.68;8.40;;;;;;;;;;5064617;28;20055;-76
2023/06/10 08:49:23;;;;;;;15.80;8.73;;;;;;;;;;5076759;28;20036;-77
2023/06/10 08:51:51;;;;;;;14.93;8.32;;;;;;;;;;5055126;28;20012;-76
2023/06/10 08:54:22;;;;;;;17.52;9.48;;;;;;;;;;5059769;28;20108;-76
2023/06/10 08:56:51;;;;;;;18.55;8.40;;;;;;;;;;5047551;28;20028;-76
2023/06/10 08:59:18;;;;;;;17.08;9.38;;;;;;;;;;5058911;28;20028;-77
2023/06/10 09:01:45;;;;;;;24.17;10.68;;;;;;;;;;5061686;28;20025;-75
2023/06/10 09:04:11;;;;;;;15.60;9.75;;;;;;;;;;5065259;28;20028;-75
2023/06/10 09:06:38;;;;;;;15.95;9.68;;;;;;;;;;5048362;28;20060;-76
2023/06/10 09:09:06;;;;;;;17.67;8.45;;;;;;;;;;5060036;28;20025;-76
2023/06/10 09:11:32;;;;;;;14.82;9.25;;;;;;;;;;5045557;28;20028;-77
2023/06/10 09:13:58;;;;;;;15.38;9.63;;;;;;;;;;5056842;28;20033;-77
2023/06/10 09:16:27;;;;;;;22.40;10.32;;;;;;;;;;5054757;28;20025;-77
2023/06/10 09:18:55;;;;;;;19.67;10.60;;;;;;;;;;5066183;28;20037;-76
2023/06/10 09:21:25;;;;;;;14.75;10.18;;;;;;;;;;5065388;28;20028;-76
2023/06/10 09:23:51;;;;;;;18.30;11.15;;;;;;;;;;5062120;28;20090;-76
2023/06/10 09:26:18;;;;;;;17.02;9.82;;;;;;;;;;5057612;28;20036;-76
2023/06/10 09:28:45;;;;;;;19.25;10.65;;;;;;;;;;5060827;28;20083;-76
2023/06/10 09:31:12;;;;;;;14.95;9.40;;;;;;;;;;5056773;28;20068;-77
2023/06/10 09:33:41;;;;;;;21.15;9.95;;;;;;;;;;5072242;28;20039;-77
2023/06/10 09:36:08;;;;;;;17.00;9.90;;;;;;;;;;5063523;28;20108;-77
2023/06/10 09:38:35;;;;;;;25.90;10.55;;;;;;;;;;5059899;28;20040;-76
2023/06/10 09:41:01;;;;;;;20.10;10.43;;;;;;;;;;5059888;28;20036;-77
2023/06/10 09:43:40;;;;;;;17.30;9.55;;;;;;;;;;5075686;28;20029;-77
2023/06/10 09:46:06;;;;;;;18.15;9.85;;;;;;;;;;5070759;28;20000;-77
2023/06/10 09:48:41;;;;;;;17.38;10.70;;;;;;;;;;5056337;28;20096;-76
2023/06/10 09:51:10;;;;;;;16.27;10.15;;;;;;;;;;5069845;28;20024;-75
2023/06/10 09:53:36;;;;;;;17.83;9.05;;;;;;;;;;5060825;28;20049;-76
2023/06/10 09:56:02;;;;;;;14.93;9.13;;;;;;;;;;5060105;28;20028;-75
2023/06/10 09:58:35;;;;;;;20.02;11.55;;;;;;;;;;5055635;28;20040;-75
2023/06/10 10:01:04;;;;;;;18.83;10.20;;;;;;;;;;5054887;28;20033;-75
2023/06/10 10:03:31;;;;;;;20.95;10.40;;;;;;;;;;5056945;28;20033;-76
2023/06/10 10:06:00;;;;;;;15.05;9.73;;;;;;;;;;5053881;28;20017;-74
2023/06/10 10:08:27;;;;;;;18.77;10.75;;;;;;;;;;5064741;28;20024;-76
2023/06/10 10:10:53;;;;;;;19.58;10.57;;;;;;;;;;5058608;28;20095;-75
2023/06/10 10:13:20;;;;;;;22.67;11.95;;;;;;;;;;5054508;28;20498;-76
2023/06/10 10:15:46;;;;;;;25.35;11.60;;;;;;;;;;5056545;28;20028;-76
2023/06/10 10:18:16;;;;;;;17.15;10.65;;;;;;;;;;5059558;28;20043;-75
2023/06/10 10:20:52;;;;;;;17.77;9.65;;;;;;;;;;5055297;28;20563;-76
2023/06/10 10:23:30;;;;;;;20.23;10.82;;;;;;;;;;5056797;28;20025;-76
2023/06/10 10:25:58;;;;;;;24.13;11.80;;;;;;;;;;5054461;28;20021;-75
2023/06/10 10:28:26;;;;;;;19.98;10.25;;;;;;;;;;5056861;28;20029;-75
2023/06/10 10:30:55;;;;;;;18.35;10.23;;;;;;;;;;5053127;28;20443;-75
2023/06/10 10:33:23;;;;;;;21.85;11.57;;;;;;;;;;5057921;28;21605;-74
2023/06/10 10:35:50;;;;;;;24.08;12.30;;;;;;;;;;5060586;28;20051;-75
2023/06/10 10:38:16;;;;;;;15.88;10.95;;;;;;;;;;5062304;28;20032;-76
2023/06/10 10:40:43;;;;;;;21.58;11.73;;;;;;;;;;5059670;28;20025;-76
2023/06/10 10:43:10;;;;;;;25.60;12.65;;;;;;;;;;5059542;28;20455;-75
2023/06/10 10:45:36;;;;;;;25.80;13.23;;;;;;;;;;5058381;28;20025;-74
2023/06/10 10:48:12;;;;;;;18.88;11.50;;;;;;;;;;5078608;28;20048;-75
2023/06/10 10:50:38;;;;;;;17.90;12.50;;;;;;;;;;5081478;28;20026;-75
2023/06/10 10:53:05;;;;;;;22.67;13.20;;;;;;;;;;5073335;28;20050;-75
2023/06/10 10:55:32;;;;;;;19.95;12.70;;;;;;;;;;5069744;28;20029;-76
2023/06/10 10:58:04;;;;;;;17.35;12.05;;;;;;;;;;5068365;28;20151;-75
2023/06/10 11:00:30;;;;;;;16.52;10.88;;;;;;;;;;5062040;28;20503;-75
2023/06/10 11:03:00;;;;;;;23.92;11.82;;;;;;;;;;5067130;28;20064;-75
2023/06/10 11:05:52;;;;;;;22.08;12.02;;;;;;;;;;5060632;28;20028;-75
2023/06/10 11:08:33;;;;;;;23.15;10.40;;;;;;;;;;5060172;28;20153;-75
2023/06/10 11:11:00;;;;;;;15.07;10.98;;;;;;;;;;5064407;28;20526;-73
2023/06/10 11:13:26;;;;;;;19.05;12.20;;;;;;;;;;5060282;28;20059;-75
2023/06/10 11:15:52;;;;;;;19.55;11.30;;;;;;;;;;5056382;28;20035;-75
2023/06/10 11:18:25;;;;;;;21.48;13.25;;;;;;;;;;5057231;28;20024;-74
2023/06/10 11:20:51;;;;;;;21.35;12.90;;;;;;;;;;5051955;28;20235;-73
2023/06/10 11:23:27;;;;;;;18.95;11.10;;;;;;;;;;5061098;28;20055;-73
2023/06/10 11:26:13;;;;;;;16.58;11.75;;;;;;;;;;5061878;28;20052;-73
2023/06/10 11:28:40;;;;;;;21.80;10.95;;;;;;;;;;5062949;28;20021;-73
2023/06/10 11:31:06;;;;;;;23.50;11.27;;;;;;;;;;5051701;22;20056;-77
2023/06/10 11:33:33;;;;;;;23.15;10.98;;;;;;;;;;5028111;28;20035;-78
2023/06/10 11:35:59;;;;;;;22.88;11.10;;;;;;;;;;5048713;28;20409;-80
2023/06/10 11:38:25;;;;;;;15.93;12.00;;;;;;;;;;5060122;28;20093;-81
2023/06/10 11:40:52;;;;;;;21.63;11.65;;;;;;;;;;5063667;28;20023;-78
2023/06/10 11:43:20;;;;;;;22.23;11.90;;;;;;;;;;5045128;28;20039;-80
2023/06/10 11:45:47;;;;;;;24.50;11.00;;;;;;;;;;5062847;28;20401;-79
2023/06/10 11:48:13;;;;;;;18.38;11.50;;;;;;;;;;5044423;28;20036;-79
2023/06/10 11:50:42;;;;;;;20.70;11.63;;;;;;;;;;5062464;28;20044;-79
2023/06/10 11:53:10;;;;;;;17.42;11.90;;;;;;;;;;5045512;28;20028;-80
2023/06/10 11:55:52;;;;;;;22.75;12.25;;;;;;;;;;5059766;28;20058;-79
2023/06/10 11:58:19;;;;;;;14.68;10.52;;;;;;;;;;5045696;28;20060;-76
2023/06/10 12:00:49;;;;;;;21.38;11.52;;;;;;;;;;5063495;28;20040;-79
2023/06/10 12:03:16;;;;;;;18.08;10.57;;;;;;;;;;5044861;28;20021;-80
2023/06/10 12:05:55;;;;;;;15.85;10.68;;;;;;;;;;5061755;28;20055;-80
2023/06/10 12:08:21;;;;;;;19.73;11.32;;;;;;;;;;5045290;28;20032;-80
2023/06/10 12:10:47;;;;;;;14.77;11.10;;;;;;;;;;5044316;28;20066;-78
2023/06/10 12:13:14;;;;;;;20.05;10.73;;;;;;;;;;5060282;28;20025;-79
2023/06/10 12:15:40;;;;;;;19.40;10.90;;;;;;;;;;5045672;28;20044;-79
2023/06/10 12:18:06;;;;;;;17.33;10.45;;;;;;;;;;5065356;28;20020;-81
2023/06/10 12:20:33;;;;;;;15.68;10.93;;;;;;;;;;5061631;28;20449;-79
2023/06/10 12:23:00;;;;;;;18.75;10.80;;;;;;;;;;5062996;28;20079;-80
2023/06/10 12:25:27;;;;;;;21.23;11.27;;;;;;;;;;5048068;28;20024;-78
2023/06/10 12:27:53;;;;;;;14.55;9.75;;;;;;;;;;5064111;28;20024;-78
2023/06/10 12:30:23;;;;;;;16.40;11.13;;;;;;;;;;5065575;28;20783;-79
2023/06/10 12:32:49;;;;;;;14.98;10.05;;;;;;;;;;5047261;28;20040;-77
2023/06/10 12:35:20;;;;;;;21.02;11.43;;;;;;;;;;5065223;28;20021;-77
2023/06/10 12:37:57;;;;;;;17.60;9.68;;;;;;;;;;5062081;28;20039;-77
2023/06/10 12:40:31;;;;;;;21.60;9.98;;;;;;;;;;5045943;28;20016;-78
2023/06/10 12:42:57;;;;;;;18.77;10.27;;;;;;;;;;5046465;28;20032;-78
2023/06/10 12:45:28;;;;;;;20.33;10.13;;;;;;;;;;5061164;28;20023;-77
2023/06/10 12:48:05;;;;;;;21.95;10.23;;;;;;;;;;5062736;28;20097;-78
2023/06/10 12:50:31;;;;;;;13.90;9.55;;;;;;;;;;5044046;28;20407;-77
2023/06/10 12:52:58;;;;;;;18.45;10.98;;;;;;;;;;5062896;28;20113;-76
2023/06/10 12:55:24;;;;;;;18.95;11.23;;;;;;;;;;5041713;28;20033;-77
2023/06/10 12:57:51;;;;;;;16.27;10.75;;;;;;;;;;5060498;28;20020;-76
2023/06/10 13:00:18;;;;;;;16.83;9.73;;;;;;;;;;5061354;28;20024;-76
2023/06/10 13:02:44;;;;;;;15.55;9.80;;;;;;;;;;5042480;28;20112;-78
2023/06/10 13:05:10;;;;;;;19.75;10.73;;;;;;;;;;5062789;28;20118;-77
2023/06/10 13:07:36;;;;;;;13.90;11.15;;;;;;;;;;5060866;28;20500;-77
2023/06/10 13:10:02;;;;;;;14.88;10.07;;;;;;;;;;5060964;28;20074;-77
2023/06/10 13:12:29;;;;;;;17.85;10.70;;;;;;;;;;5060931;28;20555;-79
2023/06/10 13:14:55;;;;;;;19.40;11.38;;;;;;;;;;5060463;28;20033;-77
2023/06/10 13:17:21;;;;;;;16.27;10.35;;;;;;;;;;5059007;28;20029;-78
2023/06/10 13:19:48;;;;;;;18.65;10.35;;;;;;;;;;5060560;28;20024;-78
2023/06/10 13:22:15;;;;;;;26.73;11.05;;;;;;;;;;5043776;28;20028;-78
2023/06/10 13:24:43;;;;;;;17.48;10.05;;;;;;;;;;5040587;28;20029;-77
2023/06/10 13:27:10;;;;;;;14.85;9.85;;;;;;;;;;5061756;28;20033;-77
2023/06/10 13:29:36;;;;;;;15.80;10.02;;;;;;;;;;5060712;28;20025;-78
2023/06/10 13:32:02;;;;;;;17.70;11.00;;;;;;;;;;5060043;28;20044;-76
2023/06/10 13:34:28;;;;;;;15.27;10.18;;;;;;;;;;5059795;28;20107;-76
2023/06/10 13:36:55;;;;;;;18.60;10.77;;;;;;;;;;5060658;28;20715;-77
2023/06/10 13:39:21;;;;;;;14.57;10.85;;;;;;;;;;5056581;28;20029;-77
2023/06/10 13:41:47;;;;;;;18.35;11.32;;;;;;;;;;5062403;28;20544;-77
2023/06/10 13:44:13;;;;;;;18.33;11.45;;;;;;;;;;5042509;28;20033;-78
2023/06/10 13:46:39;;;;;;;18.92;12.50;;;;;;;;;;5062291;28;20020;-77
2023/06/10 13:49:06;;;;;;;20.90;12.30;;;;;;;;;;5061313;28;20024;-78
2023/06/10 13:51:32;;;;;;;21.23;12.90;;;;;;;;;;5061070;28;20720;-79
2023/06/10 13:53:58;;;;;;;17.85;12.63;;;;;;;;;;5048300;28;20056;-78
2023/06/10 13:56:25;;;;;;;19.00;11.82;;;;;;;;;;5045980;28;20076;-79
2023/06/10 13:58:51;;;;;;;20.85;12.48;;;;;;;;;;5046744;28;20396;-79
2023/06/10 14:01:17;;;;;;;17.75;12.57;;;;;;;;;;5063666;28;20025;-79
2023/06/10 14:03:48;;;;;;;19.88;11.93;;;;;;;;;;5069297;28;20076;-79
2023/06/10 14:06:18;;;;;;;22.52;13.02;;;;;;;;;;5049733;28;20039;-79
2023/06/10 14:08:44;;;;;;;22.88;12.75;;;;;;;;;;5067128;28;20667;-77
2023/06/10 14:11:10;;;;;;;23.75;12.48;;;;;;;;;;5061913;28;20048;-80
2023/06/10 14:13:38;;;;;;;21.70;14.60;;;;;;;;;;5063968;28;20033;-80
2023/06/10 14:16:04;;;;;;;17.58;12.80;;;;;;;;;;5045275;28;20028;-78
2023/06/10 14:18:31;;;;;;;27.83;12.73;;;;;;;;;;5066626;28;20135;-78
2023/06/10 14:20:57;;;;;;;22.60;13.45;;;;;;;;;;5063416;28;20029;-78
2023/06/10 14:23:25;;;;;;;26.63;13.20;;;;;;;;;;5061862;28;20389;-78